createdAt,value
2023-01-01T00:00:32.626Z,11.22
2023-01-01T00:03:01.071Z,11.22
2023-01-01T00:05:29.554Z,11.21
2023-01-01T00:08:04.240Z,11.19
2023-01-01T00:10:34.173Z,11.19
2023-01-01T00:13:02.775Z,11.18
2023-01-01T00:15:35.176Z,11.16
2023-01-01T00:18:03.664Z,11.16
2023-01-01T00:20:35.365Z,11.15
2023-01-01T00:23:05.597Z,11.16
2023-01-01T00:25:34.100Z,11.19
2023-01-01T00:28:03.143Z,11.21
2023-01-01T00:30:32.952Z,11.21
2023-01-01T00:33:01.374Z,11.22
2023-01-01T00:35:29.916Z,11.21
2023-01-01T00:37:58.397Z,11.20
2023-01-01T00:40:26.862Z,11.17
2023-01-01T00:42:55.348Z,11.17
2023-01-01T00:45:23.971Z,11.16
2023-01-01T00:47:55.345Z,11.15
2023-01-01T00:50:24.847Z,11.15
2023-01-01T00:52:53.309Z,11.14
2023-01-01T00:55:21.966Z,11.14
2023-01-01T00:57:50.437Z,11.17
2023-01-01T01:00:20.356Z,11.17
2023-01-01T01:02:49.029Z,11.18
2023-01-01T01:05:19.270Z,11.19
2023-01-01T01:07:47.773Z,11.19
2023-01-01T01:10:17.046Z,11.19
2023-01-01T01:12:45.559Z,11.19
2023-01-01T01:15:14.284Z,11.19
2023-01-01T01:17:42.764Z,11.17
2023-01-01T01:20:12.872Z,11.17
2023-01-01T01:22:42.720Z,11.15
2023-01-01T01:25:11.909Z,11.14
2023-01-01T01:27:40.356Z,11.11
2023-01-01T01:30:10.705Z,11.09
2023-01-01T01:32:39.235Z,11.07
2023-01-01T01:35:08.810Z,11.04
2023-01-01T01:37:37.353Z,11.02
2023-01-01T01:40:09.454Z,10.99
2023-01-01T01:42:37.959Z,10.98
2023-01-01T01:45:11.600Z,10.95
2023-01-01T01:47:47.963Z,10.95
2023-01-01T01:50:23.505Z,10.93
2023-01-01T01:53:04.389Z,10.91
2023-01-01T01:55:38.735Z,10.90
2023-01-01T01:58:09.266Z,10.91
2023-01-01T02:00:38.174Z,10.90
2023-01-01T02:03:09.571Z,10.90
2023-01-01T02:05:40.341Z,10.89
2023-01-01T02:08:09.954Z,10.88
2023-01-01T02:10:40.218Z,10.87
2023-01-01T02:13:08.956Z,10.86
2023-01-01T02:15:45.637Z,10.84
2023-01-01T02:18:19.427Z,10.83
2023-01-01T02:20:55.553Z,10.82
2023-01-01T02:24:16.400Z,10.76
2023-01-01T02:26:55.771Z,10.76
2023-01-01T02:29:45.615Z,10.73
2023-01-01T02:32:21.233Z,10.74
2023-01-01T02:34:54.802Z,10.73
2023-01-01T02:37:25.565Z,10.72
2023-01-01T02:39:59.680Z,10.69
2023-01-01T02:42:30.559Z,10.68
2023-01-01T02:45:01.354Z,10.66
2023-01-01T02:47:29.834Z,10.64
2023-01-01T02:50:07.383Z,10.62
2023-01-01T02:52:57.418Z,10.60
2023-01-01T02:55:38.210Z,10.58
2023-01-01T02:58:35.383Z,10.56
2023-01-01T03:01:13.811Z,10.55
2023-01-01T03:03:50.937Z,10.54
2023-01-01T03:06:33.591Z,10.52
2023-01-01T03:09:13.661Z,10.53
2023-01-01T03:11:53.728Z,10.51
2023-01-01T03:14:30.234Z,10.50
2023-01-01T03:17:07.797Z,10.48
2023-01-01T03:19:40.535Z,10.45
2023-01-01T03:22:12.142Z,10.44
2023-01-01T03:24:44.624Z,10.43
2023-01-01T03:27:18.059Z,10.41
2023-01-01T03:29:49.026Z,10.38
2023-01-01T03:32:46.491Z,10.36
2023-01-01T03:35:17.049Z,10.33
2023-01-01T03:37:50.226Z,10.32
2023-01-01T03:40:21.874Z,10.30
2023-01-01T03:42:56.275Z,10.30
2023-01-01T03:45:30.664Z,10.28
2023-01-01T03:48:02.074Z,10.27
2023-01-01T03:50:42.097Z,10.25
2023-01-01T03:53:20.463Z,10.24
2023-01-01T03:55:53.567Z,10.24
2023-01-01T03:58:32.797Z,10.22
2023-01-01T04:01:07.828Z,10.22
2023-01-01T04:03:39.170Z,10.21
2023-01-01T04:06:08.817Z,10.21
2023-01-01T04:08:37.833Z,10.22
2023-01-01T04:11:28.952Z,10.22
2023-01-01T04:13:57.436Z,10.21
2023-01-01T04:16:25.968Z,10.22
2023-01-01T04:18:55.814Z,10.23
2023-01-01T04:21:24.256Z,10.23
2023-01-01T04:23:52.893Z,10.25
2023-01-01T04:26:21.353Z,10.25
2023-01-01T04:28:49.789Z,10.26
2023-01-01T04:31:18.205Z,10.26
2023-01-01T04:33:46.629Z,10.28
2023-01-01T04:36:16.424Z,10.27
2023-01-01T04:38:44.840Z,10.28
2023-01-01T04:41:13.227Z,10.29
2023-01-01T04:43:41.648Z,10.31
2023-01-01T04:46:11.056Z,10.29
2023-01-01T04:48:39.555Z,10.29
2023-01-01T04:51:08.176Z,10.29
2023-01-01T04:53:38.088Z,10.29
2023-01-01T04:56:07.607Z,10.30
2023-01-01T04:58:37.599Z,10.31
2023-01-01T05:01:07.144Z,10.31
2023-01-01T05:03:35.852Z,10.32
2023-01-01T05:06:07.275Z,10.32
2023-01-01T05:08:40.255Z,10.33
2023-01-01T05:11:12.073Z,10.32
2023-01-01T05:13:43.528Z,10.33
2023-01-01T05:16:14.689Z,10.33
2023-01-01T05:18:44.103Z,10.33
2023-01-01T05:21:16.761Z,10.34
2023-01-01T05:23:46.790Z,10.36
2023-01-01T05:26:17.780Z,10.37
2023-01-01T05:28:46.911Z,10.39
2023-01-01T05:31:18.269Z,10.42
2023-01-01T05:33:46.784Z,10.44
2023-01-01T05:36:18.913Z,10.45
2023-01-01T05:38:48.977Z,10.47
2023-01-01T05:41:20.261Z,10.47
2023-01-01T05:43:49.220Z,10.50
2023-01-01T05:46:21.223Z,10.52
2023-01-01T05:48:50.369Z,10.54
2023-01-01T05:51:22.109Z,10.55
2023-01-01T05:53:52.712Z,10.57
2023-01-01T05:56:21.407Z,10.58
2023-01-01T05:58:49.860Z,10.60
2023-01-01T06:01:21.535Z,10.61
2023-01-01T06:03:50.745Z,10.62
2023-01-01T06:06:21.837Z,10.61
2023-01-01T06:08:56.901Z,10.61
2023-01-01T06:11:25.797Z,10.62
2023-01-01T06:13:55.260Z,10.62
2023-01-01T06:16:24.424Z,10.60
2023-01-01T06:18:53.523Z,10.60
2023-01-01T06:21:25.258Z,10.61
2023-01-01T06:23:58.001Z,10.59
2023-01-01T06:26:29.628Z,10.59
2023-01-01T06:28:59.205Z,10.59
2023-01-01T06:31:28.822Z,10.59
2023-01-01T06:33:57.574Z,10.61
2023-01-01T06:36:27.173Z,10.61
2023-01-01T06:38:58.687Z,10.58
2023-01-01T06:41:29.505Z,10.58
2023-01-01T06:43:58.919Z,10.58
2023-01-01T06:46:30.351Z,10.58
2023-01-01T06:49:00.264Z,10.57
2023-01-01T06:51:31.377Z,10.57
2023-01-01T06:54:03.301Z,10.57
2023-01-01T06:56:32.379Z,10.57
2023-01-01T06:59:01.252Z,10.57
2023-01-01T07:01:31.968Z,10.57
2023-01-01T07:04:02.913Z,10.57
2023-01-01T07:06:33.799Z,10.56
2023-01-01T07:09:03.792Z,10.56
2023-01-01T07:11:32.559Z,10.56
2023-01-01T07:14:01.080Z,10.56
2023-01-01T07:16:29.805Z,10.57
2023-01-01T07:18:58.485Z,10.56
2023-01-01T07:21:31.582Z,10.58
2023-01-01T07:24:03.753Z,10.59
2023-01-01T07:26:34.207Z,10.61
2023-01-01T07:29:07.349Z,10.64
2023-01-01T07:31:36.967Z,10.66
2023-01-01T07:34:05.773Z,10.68
2023-01-01T07:36:34.461Z,10.72
2023-01-01T07:39:04.257Z,10.74
2023-01-01T07:41:32.698Z,10.78
2023-01-01T07:44:01.339Z,10.82
2023-01-01T07:46:30.313Z,10.85
2023-01-01T07:48:58.843Z,10.89
2023-01-01T07:51:27.803Z,10.90
2023-01-01T07:54:00.679Z,10.90
2023-01-01T07:56:34.751Z,10.91
2023-01-01T07:59:03.347Z,10.91
2023-01-01T08:01:31.926Z,10.91
2023-01-01T08:04:00.451Z,10.93
2023-01-01T08:06:28.893Z,10.95
2023-01-01T08:08:57.438Z,10.98
2023-01-01T08:11:25.865Z,10.98
2023-01-01T08:13:55.653Z,11.01
2023-01-01T08:16:24.166Z,11.05
2023-01-01T08:18:52.643Z,11.08
2023-01-01T08:21:21.029Z,11.08
2023-01-01T08:23:49.411Z,11.09
2023-01-01T08:26:19.643Z,11.09
2023-01-01T08:28:52.134Z,11.08
2023-01-01T08:31:26.942Z,11.09
2023-01-01T08:33:55.453Z,11.10
2023-01-01T08:36:24.084Z,11.11
2023-01-01T08:38:52.511Z,11.16
2023-01-01T08:41:20.974Z,11.19
2023-01-01T08:43:49.363Z,11.25
2023-01-01T08:46:17.926Z,11.31
2023-01-01T08:48:47.743Z,11.38
2023-01-01T08:51:16.238Z,11.45
2023-01-01T08:53:50.635Z,11.51
2023-01-01T08:56:20.477Z,11.58
2023-01-01T08:58:49.495Z,11.63
2023-01-01T09:01:21.620Z,11.66
2023-01-01T09:03:51.693Z,11.73
2023-01-01T09:06:20.234Z,11.81
2023-01-01T09:08:48.771Z,11.89
2023-01-01T09:11:25.283Z,11.98
2023-01-01T09:13:54.050Z,12.10
2023-01-01T09:16:23.768Z,12.21
2023-01-01T09:18:53.653Z,12.32
2023-01-01T09:21:22.459Z,12.41
2023-01-01T09:23:50.957Z,12.52
2023-01-01T09:26:19.370Z,12.66
2023-01-01T09:28:47.785Z,12.79
2023-01-01T09:31:16.247Z,12.91
2023-01-01T09:33:44.759Z,13.01
2023-01-01T09:36:16.586Z,13.10
2023-01-01T09:38:49.406Z,13.25
2023-01-01T09:41:27.201Z,13.41
2023-01-01T09:44:05.678Z,13.57
2023-01-01T09:46:34.277Z,13.71
2023-01-01T09:49:08.064Z,13.84
2023-01-01T09:51:49.947Z,13.97
2023-01-01T09:54:30.016Z,14.11
2023-01-01T09:57:01.417Z,14.25
2023-01-01T09:59:31.131Z,14.35
2023-01-01T10:02:11.860Z,14.45
2023-01-01T10:04:59.072Z,14.58
2023-01-01T10:07:37.082Z,14.74
2023-01-01T10:10:22.207Z,14.88
2023-01-01T10:13:00.652Z,15.05
2023-01-01T10:15:35.052Z,15.18
2023-01-01T10:18:15.049Z,15.34
2023-01-01T10:20:49.951Z,15.50
2023-01-01T10:23:26.118Z,15.65
2023-01-01T10:25:58.336Z,15.77
2023-01-01T10:28:34.116Z,15.89
2023-01-01T10:31:17.119Z,15.99
2023-01-01T10:33:47.536Z,16.07
2023-01-01T10:36:20.626Z,16.14
2023-01-01T10:38:52.023Z,16.21
2023-01-01T10:41:20.487Z,16.26
2023-01-01T10:43:49.566Z,16.28
2023-01-01T10:46:29.571Z,16.33
2023-01-01T10:49:12.647Z,16.49
2023-01-01T10:51:47.105Z,16.72
2023-01-01T10:54:36.477Z,16.99
2023-01-01T10:57:16.904Z,17.22
2023-01-01T10:59:53.502Z,17.39
2023-01-01T11:02:25.646Z,17.58
2023-01-01T11:05:14.980Z,17.74
2023-01-01T11:07:46.823Z,17.95
2023-01-01T11:10:22.185Z,18.06
2023-01-01T11:13:08.665Z,18.14
2023-01-01T11:15:41.420Z,18.16
2023-01-01T11:18:15.285Z,18.26
2023-01-01T11:20:44.073Z,18.32
2023-01-01T11:23:33.234Z,18.21
2023-01-01T11:26:08.206Z,18.06
2023-01-01T11:28:37.663Z,17.88
2023-01-01T11:31:18.729Z,17.59
2023-01-01T11:33:51.373Z,17.36
2023-01-01T11:36:25.578Z,17.26
2023-01-01T11:39:14.384Z,17.40
2023-01-01T11:41:47.969Z,17.80
2023-01-01T11:44:31.351Z,18.20
2023-01-01T11:47:00.431Z,18.72
2023-01-01T11:49:31.738Z,19.15
2023-01-01T11:52:00.685Z,19.44
2023-01-01T11:54:36.012Z,19.64
2023-01-01T11:57:13.348Z,19.97
2023-01-01T11:59:50.757Z,20.29
2023-01-01T12:02:31.671Z,20.60
2023-01-01T12:05:11.801Z,20.97
2023-01-01T12:07:42.582Z,21.32
2023-01-01T12:10:21.605Z,21.51
2023-01-01T12:12:58.831Z,21.73
2023-01-01T12:15:33.572Z,22.02
2023-01-01T12:18:12.459Z,22.23
2023-01-01T12:20:46.813Z,22.33
2023-01-01T12:23:18.192Z,22.46
2023-01-01T12:25:57.107Z,22.59
2023-01-01T12:28:39.900Z,22.77
2023-01-01T12:31:19.686Z,22.96
2023-01-01T12:34:11.811Z,23.09
2023-01-01T12:36:50.363Z,23.29
2023-01-01T12:40:16.085Z,23.32
2023-01-01T12:43:01.640Z,22.90
2023-01-01T12:46:13.865Z,22.07
2023-01-01T12:49:37.147Z,21.26
2023-01-01T12:52:27.013Z,20.52
2023-01-01T12:55:44.318Z,19.97
2023-01-01T12:58:18.981Z,19.56
2023-01-01T13:00:57.189Z,19.21
2023-01-01T13:03:30.655Z,18.91
2023-01-01T13:06:01.628Z,18.64
2023-01-01T13:08:30.086Z,18.44
2023-01-01T13:11:01.273Z,18.23
2023-01-01T13:13:29.828Z,18.02
2023-01-01T13:15:59.920Z,17.84
2023-01-01T13:18:33.546Z,17.68
2023-01-01T13:21:08.854Z,17.53
2023-01-01T13:23:48.676Z,17.37
2023-01-01T13:26:42.856Z,17.20
2023-01-01T13:29:43.491Z,17.03
2023-01-01T13:32:15.321Z,16.93
2023-01-01T13:35:03.469Z,16.82
2023-01-01T13:37:49.128Z,16.71
2023-01-01T13:40:58.893Z,16.58
2023-01-01T13:43:33.485Z,16.51
2023-01-01T13:46:14.260Z,16.43
2023-01-01T13:49:21.743Z,16.31
2023-01-01T13:52:26.649Z,16.24
2023-01-01T13:55:51.399Z,16.14
2023-01-01T13:59:26.304Z,16.04
2023-01-01T14:02:02.910Z,16.01
2023-01-01T14:04:43.938Z,15.96
2023-01-01T14:07:52.864Z,15.89
2023-01-01T14:10:28.999Z,15.83
2023-01-01T14:13:15.102Z,15.79
2023-01-01T14:15:55.061Z,15.72
2023-01-01T14:18:32.559Z,15.67
2023-01-01T14:21:02.772Z,15.63
2023-01-01T14:23:35.052Z,15.59
2023-01-01T14:26:09.786Z,15.55
2023-01-01T14:28:39.152Z,15.51
2023-01-01T14:31:20.457Z,15.45
2023-01-01T14:33:49.897Z,15.41
2023-01-01T14:36:24.541Z,15.35
2023-01-01T14:38:54.965Z,15.31
2023-01-01T14:41:29.253Z,15.24
2023-01-01T14:44:04.538Z,15.19
2023-01-01T14:46:33.725Z,15.14
2023-01-01T14:49:09.471Z,15.07
2023-01-01T14:51:44.837Z,15.03
2023-01-01T14:54:20.716Z,14.95
2023-01-01T14:56:51.203Z,14.92
2023-01-01T14:59:26.400Z,14.84
2023-01-01T15:02:03.546Z,14.76
2023-01-01T15:04:32.378Z,14.73
2023-01-01T15:07:02.935Z,14.67
2023-01-01T15:09:33.567Z,14.61
2023-01-01T15:12:02.690Z,14.54
2023-01-01T15:14:34.789Z,14.48
2023-01-01T15:17:05.149Z,14.44
2023-01-01T15:19:34.990Z,14.39
2023-01-01T15:22:11.838Z,14.33
2023-01-01T15:24:40.997Z,14.29
2023-01-01T15:27:22.216Z,14.24
2023-01-01T15:29:51.539Z,14.20
2023-01-01T15:32:28.452Z,14.15
2023-01-01T15:34:59.949Z,14.11
2023-01-01T15:37:38.079Z,14.06
2023-01-01T15:40:35.946Z,13.99
2023-01-01T15:43:22.401Z,13.95
2023-01-01T15:45:58.293Z,13.92
2023-01-01T15:48:37.609Z,13.87
2023-01-01T15:51:18.068Z,13.81
2023-01-01T15:53:57.846Z,13.77
2023-01-01T15:56:29.582Z,13.73
2023-01-01T15:59:08.770Z,13.69
2023-01-01T16:01:41.752Z,13.65
2023-01-01T16:04:19.556Z,13.61
2023-01-01T16:06:55.488Z,13.56
2023-01-01T16:09:25.459Z,13.52
2023-01-01T16:11:55.991Z,13.48
2023-01-01T16:14:24.600Z,13.45
2023-01-01T16:16:57.447Z,13.40
2023-01-01T16:19:26.697Z,13.36
2023-01-01T16:21:55.164Z,13.32
2023-01-01T16:24:25.264Z,13.27
2023-01-01T16:26:53.833Z,13.23
2023-01-01T16:29:22.324Z,13.18
2023-01-01T16:31:52.971Z,13.14
2023-01-01T16:34:21.597Z,13.10
2023-01-01T16:36:50.086Z,13.06
2023-01-01T16:39:18.591Z,13.04
2023-01-01T16:41:48.445Z,13.00
2023-01-01T16:44:17.680Z,12.98
2023-01-01T16:46:46.315Z,12.94
2023-01-01T16:49:14.915Z,12.92
2023-01-01T16:51:44.256Z,12.87
2023-01-01T16:54:13.202Z,12.84
2023-01-01T16:56:41.641Z,12.82
2023-01-01T16:59:11.576Z,12.80
2023-01-01T17:01:40.220Z,12.77
2023-01-01T17:04:09.071Z,12.76
2023-01-01T17:06:39.874Z,12.74
2023-01-01T17:09:09.147Z,12.73
2023-01-01T17:11:39.391Z,12.71
2023-01-01T17:14:08.542Z,12.69
2023-01-01T17:16:39.887Z,12.66
2023-01-01T17:19:14.923Z,12.66
2023-01-01T17:21:45.898Z,12.62
2023-01-01T17:24:15.101Z,12.60
2023-01-01T17:26:43.667Z,12.57
2023-01-01T17:29:12.608Z,12.55
2023-01-01T17:31:44.009Z,12.53
2023-01-01T17:34:14.716Z,12.50
2023-01-01T17:36:45.330Z,12.48
2023-01-01T17:39:15.687Z,12.46
2023-01-01T17:41:45.780Z,12.44
2023-01-01T17:44:14.428Z,12.43
2023-01-01T17:46:44.856Z,12.42
2023-01-01T17:49:15.583Z,12.42
2023-01-01T17:51:44.042Z,12.41
2023-01-01T17:54:13.828Z,12.39
2023-01-01T17:56:43.225Z,12.38
2023-01-01T17:59:12.533Z,12.38
2023-01-01T18:01:42.275Z,12.39
2023-01-01T18:04:12.673Z,12.42
2023-01-01T18:06:44.257Z,12.45
2023-01-01T18:09:16.508Z,12.47
2023-01-01T18:11:45.514Z,12.52
2023-01-01T18:14:19.589Z,12.59
2023-01-01T18:16:52.369Z,12.65
2023-01-01T18:19:22.959Z,12.71
2023-01-01T18:21:52.207Z,12.77
2023-01-01T18:24:21.601Z,12.84
2023-01-01T18:26:50.244Z,12.91
2023-01-01T18:29:19.261Z,12.98
2023-01-01T18:31:48.956Z,13.01
2023-01-01T18:34:17.957Z,13.05
2023-01-01T18:36:47.864Z,13.08
2023-01-01T18:39:22.973Z,13.08
2023-01-01T18:42:10.181Z,13.08
2023-01-01T18:44:39.168Z,13.11
2023-01-01T18:47:17.590Z,13.12
2023-01-01T18:49:50.678Z,13.13
2023-01-01T18:52:27.247Z,13.12
2023-01-01T18:55:15.084Z,13.11
2023-01-01T18:57:47.278Z,13.10
2023-01-01T19:00:22.852Z,13.07
2023-01-01T19:03:00.074Z,13.02
2023-01-01T19:05:33.355Z,12.95
2023-01-01T19:08:16.104Z,12.89
2023-01-01T19:10:51.858Z,12.81
2023-01-01T19:13:24.321Z,12.75
2023-01-01T19:15:59.043Z,12.69
2023-01-01T19:18:32.319Z,12.64
2023-01-01T19:21:21.202Z,12.56
2023-01-01T19:23:56.586Z,12.54
2023-01-01T19:26:29.910Z,12.49
2023-01-01T19:29:03.780Z,12.44
2023-01-01T19:31:32.423Z,12.39
2023-01-01T19:34:01.054Z,12.34
2023-01-01T19:36:30.271Z,12.29
2023-01-01T19:39:00.932Z,12.24
2023-01-01T19:41:29.417Z,12.20
2023-01-01T19:43:58.005Z,12.16
2023-01-01T19:46:26.626Z,12.14
2023-01-01T19:48:55.431Z,12.11
2023-01-01T19:51:24.910Z,12.07
2023-01-01T19:53:56.653Z,12.05
2023-01-01T19:56:27.646Z,12.03
2023-01-01T19:58:58.123Z,12.02
2023-01-01T20:01:28.151Z,12.02
2023-01-01T20:03:59.355Z,12.04
2023-01-01T20:06:31.051Z,12.09
2023-01-01T20:09:06.337Z,12.13
2023-01-01T20:11:38.261Z,12.19
2023-01-01T20:14:08.530Z,12.26
2023-01-01T20:16:40.862Z,12.36
2023-01-01T20:19:11.881Z,12.44
2023-01-01T20:21:59.178Z,12.53
2023-01-01T20:24:31.904Z,12.61
2023-01-01T20:27:03.627Z,12.68
2023-01-01T20:29:44.360Z,12.75
2023-01-01T20:32:16.127Z,12.79
2023-01-01T20:34:46.440Z,12.81
2023-01-01T20:37:33.306Z,12.82
2023-01-01T20:40:03.485Z,12.85
2023-01-01T20:42:35.265Z,12.89
2023-01-01T20:45:05.719Z,12.94
2023-01-01T20:47:37.127Z,12.98
2023-01-01T20:50:10.180Z,13.04
2023-01-01T20:52:42.062Z,13.11
2023-01-01T20:55:15.311Z,13.15
2023-01-01T20:57:46.558Z,13.19
2023-01-01T21:00:17.650Z,13.22
2023-01-01T21:02:49.302Z,13.25
2023-01-01T21:05:19.604Z,13.28
2023-01-01T21:07:49.861Z,13.31
2023-01-01T21:10:20.168Z,13.33
2023-01-01T21:12:55.512Z,13.34
2023-01-01T21:15:25.164Z,13.36
2023-01-01T21:17:56.876Z,13.40
2023-01-01T21:20:38.771Z,13.39
2023-01-01T21:23:15.325Z,13.41
2023-01-01T21:25:51.683Z,13.43
2023-01-01T21:28:22.729Z,13.43
2023-01-01T21:30:54.228Z,13.43
2023-01-01T21:33:28.205Z,13.41
2023-01-01T21:35:56.956Z,13.43
2023-01-01T21:38:27.827Z,13.46
2023-01-01T21:40:58.829Z,13.48
2023-01-01T21:43:35.333Z,13.48
2023-01-01T21:46:35.076Z,13.46
2023-01-01T21:49:14.367Z,13.48
2023-01-01T21:51:50.893Z,13.46
2023-01-01T21:54:26.209Z,13.45
2023-01-01T21:57:00.894Z,13.43
2023-01-01T21:59:39.659Z,13.39
2023-01-01T22:02:39.623Z,13.34
2023-01-01T22:05:31.307Z,13.33
2023-01-01T22:08:00.264Z,13.34
2023-01-01T22:10:35.837Z,13.33
2023-01-01T22:13:14.690Z,13.34
2023-01-01T22:15:47.108Z,13.34
2023-01-01T22:18:27.065Z,13.35
2023-01-01T22:20:56.623Z,13.38
2023-01-01T22:23:47.679Z,13.38
2023-01-01T22:26:20.549Z,13.42
2023-01-01T22:28:56.828Z,13.43
2023-01-01T22:31:33.414Z,13.43
2023-01-01T22:34:06.697Z,13.43
2023-01-01T22:36:36.823Z,13.43
2023-01-01T22:39:21.946Z,13.41
2023-01-01T22:41:51.411Z,13.42
2023-01-01T22:44:19.956Z,13.41
2023-01-01T22:46:50.227Z,13.39
2023-01-01T22:49:23.392Z,13.38
2023-01-01T22:51:56.279Z,13.38
2023-01-01T22:54:24.790Z,13.38
2023-01-01T22:56:53.205Z,13.38
2023-01-01T22:59:21.774Z,13.38
2023-01-01T23:01:51.664Z,13.36
2023-01-01T23:04:20.235Z,13.36
2023-01-01T23:06:48.863Z,13.34
2023-01-01T23:09:17.380Z,13.32
2023-01-01T23:11:45.999Z,13.29
2023-01-01T23:14:36.928Z,13.27
2023-01-01T23:17:09.320Z,13.23
2023-01-01T23:19:37.848Z,13.21
2023-01-01T23:22:06.491Z,13.20
2023-01-01T23:24:35.624Z,13.18
2023-01-01T23:27:04.919Z,13.16
2023-01-01T23:29:34.612Z,13.12
2023-01-01T23:32:04.413Z,13.10
2023-01-01T23:34:34.895Z,13.07
2023-01-01T23:37:03.406Z,13.07
2023-01-01T23:39:31.883Z,13.05
2023-01-01T23:42:00.577Z,13.05
2023-01-01T23:44:29.167Z,13.03
2023-01-01T23:47:00.349Z,13.02
2023-01-01T23:49:29.701Z,12.99
2023-01-01T23:52:00.472Z,12.98
2023-01-01T23:54:28.955Z,12.98
2023-01-01T23:56:57.383Z,13.00
2023-01-01T23:59:25.881Z,13.00
